sensor_id;sensor_type;location;lat;lon;timestamp;pressure;altitude;pressure_sealevel;temperature;humidity
47716;BME280;33476;50.984;3.538;2023-02-20T00:00:31;102796.09;;;10.02;67.65
47716;BME280;33476;50.984;3.538;2023-02-20T00:02:57;102798.72;;;9.99;68.29
47716;BME280;33476;50.984;3.538;2023-02-20T00:05:23;102799.56;;;10.03;68.26
47716;BME280;33476;50.984;3.538;2023-02-20T00:07:48;102802.09;;;10.06;68.18
47716;BME280;33476;50.984;3.538;2023-02-20T00:10:14;102786.44;;;10.06;68.32
47716;BME280;33476;50.984;3.538;2023-02-20T00:12:40;102787.34;;;10.03;68.51
47716;BME280;33476;50.984;3.538;2023-02-20T00:15:06;102788.22;;;10.04;68.66
47716;BME280;33476;50.984;3.538;2023-02-20T00:17:31;102789.94;;;10.05;68.67
47716;BME280;33476;50.984;3.538;2023-02-20T00:19:57;102783.84;;;10.06;69.02
47716;BME280;33476;50.984;3.538;2023-02-20T00:22:24;102769.88;;;10.10;68.81
47716;BME280;33476;50.984;3.538;2023-02-20T00:24:50;102762.91;;;10.10;68.54
47716;BME280;33476;50.984;3.538;2023-02-20T00:27:15;102763.78;;;10.09;68.74
47716;BME280;33476;50.984;3.538;2023-02-20T00:29:43;102755.16;;;10.04;69.23
47716;BME280;33476;50.984;3.538;2023-02-20T00:32:09;102750.75;;;10.06;69.15
47716;BME280;33476;50.984;3.538;2023-02-20T00:34:34;102755.94;;;10.08;68.94
47716;BME280;33476;50.984;3.538;2023-02-20T00:37:00;102748.97;;;10.10;68.96
47716;BME280;33476;50.984;3.538;2023-02-20T00:39:25;102742.06;;;10.06;69.21
47716;BME280;33476;50.984;3.538;2023-02-20T00:41:50;102734.19;;;10.07;69.06
47716;BME280;33476;50.984;3.538;2023-02-20T00:44:18;102738.53;;;10.08;69.21
47716;BME280;33476;50.984;3.538;2023-02-20T00:46:44;102735.91;;;10.11;68.91
47716;BME280;33476;50.984;3.538;2023-02-20T00:49:09;102742.91;;;10.06;69.15
47716;BME280;33476;50.984;3.538;2023-02-20T00:51:37;102724.69;;;10.03;69.27
47716;BME280;33476;50.984;3.538;2023-02-20T00:54:08;102728.91;;;10.12;69.37
47716;BME280;33476;50.984;3.538;2023-02-20T00:56:36;102727.22;;;10.09;69.44
47716;BME280;33476;50.984;3.538;2023-02-20T00:59:02;102719.44;;;10.05;69.65
47716;BME280;33476;50.984;3.538;2023-02-20T01:01:27;102704.63;;;10.07;69.92
47716;BME280;33476;50.984;3.538;2023-02-20T01:03:55;102708.88;;;10.14;69.49
47716;BME280;33476;50.984;3.538;2023-02-20T01:06:20;102702.66;;;10.21;69.40
47716;BME280;33476;50.984;3.538;2023-02-20T01:08:46;102707.03;;;10.21;69.24
47716;BME280;33476;50.984;3.538;2023-02-20T01:11:11;102700.06;;;10.20;69.26
47716;BME280;33476;50.984;3.538;2023-02-20T01:13:39;102699.22;;;10.19;69.45
47716;BME280;33476;50.984;3.538;2023-02-20T01:16:08;102701.81;;;10.19;69.33
47716;BME280;33476;50.984;3.538;2023-02-20T01:18:36;102694.00;;;10.18;69.53
47716;BME280;33476;50.984;3.538;2023-02-20T01:21:02;102695.75;;;10.19;69.48
47716;BME280;33476;50.984;3.538;2023-02-20T01:23:30;102705.31;;;10.20;69.60
47716;BME280;33476;50.984;3.538;2023-02-20T01:25:58;102696.59;;;10.18;69.73
47716;BME280;33476;50.984;3.538;2023-02-20T01:28:24;102691.34;;;10.21;69.63
47716;BME280;33476;50.984;3.538;2023-02-20T01:30:52;102685.28;;;10.20;69.57
47716;BME280;33476;50.984;3.538;2023-02-20T01:33:20;102687.88;;;10.20;69.72
47716;BME280;33476;50.984;3.538;2023-02-20T01:35:45;102684.44;;;10.17;69.73
47716;BME280;33476;50.984;3.538;2023-02-20T01:38:10;102679.25;;;10.15;69.62
47716;BME280;33476;50.984;3.538;2023-02-20T01:40:35;102677.53;;;10.14;69.74
47716;BME280;33476;50.984;3.538;2023-02-20T01:43:02;102671.50;;;10.09;69.74
47716;BME280;33476;50.984;3.538;2023-02-20T01:45:38;102668.13;;;10.04;69.80
47716;BME280;33476;50.984;3.538;2023-02-20T01:48:04;102667.19;;;10.08;69.95
47716;BME280;33476;50.984;3.538;2023-02-20T01:50:36;102659.34;;;10.09;69.71
47716;BME280;33476;50.984;3.538;2023-02-20T01:53:08;102656.75;;;10.09;69.41
47716;BME280;33476;50.984;3.538;2023-02-20T01:55:56;102654.19;;;10.05;69.85
47716;BME280;33476;50.984;3.538;2023-02-20T01:58:31;102655.03;;;10.05;69.63
47716;BME280;33476;50.984;3.538;2023-02-20T02:00:59;102664.66;;;10.03;69.53
47716;BME280;33476;50.984;3.538;2023-02-20T02:03:28;102660.28;;;10.05;69.61
47716;BME280;33476;50.984;3.538;2023-02-20T02:06:00;102662.94;;;10.02;69.59
47716;BME280;33476;50.984;3.538;2023-02-20T02:08:32;102663.81;;;10.03;69.21
47716;BME280;33476;50.984;3.538;2023-02-20T02:11:02;102664.63;;;10.05;69.30
47716;BME280;33476;50.984;3.538;2023-02-20T02:13:35;102660.31;;;10.02;69.43
47716;BME280;33476;50.984;3.538;2023-02-20T02:19:06;102647.38;;;9.96;69.62
47716;BME280;33476;50.984;3.538;2023-02-20T02:31:29;102631.03;;;9.83;70.05
47716;BME280;33476;50.984;3.538;2023-02-20T02:37:00;102640.50;;;9.91;69.47
47716;BME280;33476;50.984;3.538;2023-02-20T02:42:22;102638.59;;;10.00;69.30
47716;BME280;33476;50.984;3.538;2023-02-20T02:45:10;102632.38;;;10.07;69.33
47716;BME280;33476;50.984;3.538;2023-02-20T02:47:48;102634.81;;;10.17;68.85
47716;BME280;33476;50.984;3.538;2023-02-20T02:50:23;102629.72;;;10.09;69.40
47716;BME280;33476;50.984;3.538;2023-02-20T02:52:50;102636.69;;;10.11;69.42
47716;BME280;33476;50.984;3.538;2023-02-20T02:55:30;102630.59;;;10.11;69.78
47716;BME280;33476;50.984;3.538;2023-02-20T02:57:58;102628.72;;;10.19;69.38
47716;BME280;33476;50.984;3.538;2023-02-20T03:03:09;102618.28;;;10.19;69.67
47716;BME280;33476;50.984;3.538;2023-02-20T03:08:44;102620.94;;;10.14;69.77
47716;BME280;33476;50.984;3.538;2023-02-20T03:11:22;102617.41;;;10.17;69.84
47716;BME280;33476;50.984;3.538;2023-02-20T03:14:05;102623.47;;;10.22;69.69
47716;BME280;33476;50.984;3.538;2023-02-20T03:17:03;102616.41;;;10.26;69.35
47716;BME280;33476;50.984;3.538;2023-02-20T03:19:43;102620.75;;;10.28;69.30
47716;BME280;33476;50.984;3.538;2023-02-20T03:24:53;102622.56;;;10.22;69.44
47716;BME280;33476;50.984;3.538;2023-02-20T03:30:44;102621.84;;;10.13;69.90
47716;BME280;33476;50.984;3.538;2023-02-20T03:33:37;102621.03;;;10.08;69.89
47716;BME280;33476;50.984;3.538;2023-02-20T03:36:25;102628.81;;;10.13;69.47
47716;BME280;33476;50.984;3.538;2023-02-20T03:39:17;102630.56;;;10.12;69.50
47716;BME280;33476;50.984;3.538;2023-02-20T03:42:07;102627.00;;;10.18;69.50
47716;BME280;33476;50.984;3.538;2023-02-20T03:44:52;102631.28;;;10.22;69.31
47716;BME280;33476;50.984;3.538;2023-02-20T03:47:21;102633.91;;;10.21;69.22
47716;BME280;33476;50.984;3.538;2023-02-20T03:49:49;102626.00;;;10.25;69.15
47716;BME280;33476;50.984;3.538;2023-02-20T03:52:37;102635.59;;;10.26;69.10
47716;BME280;33476;50.984;3.538;2023-02-20T03:55:05;102631.22;;;10.25;69.05
47716;BME280;33476;50.984;3.538;2023-02-20T03:57:38;102628.66;;;10.24;69.24
47716;BME280;33476;50.984;3.538;2023-02-20T04:00:18;102629.56;;;10.20;69.10
47716;BME280;33476;50.984;3.538;2023-02-20T04:02:51;102627.78;;;10.22;69.12
47716;BME280;33476;50.984;3.538;2023-02-20T04:05:26;102617.34;;;10.22;68.67
47716;BME280;33476;50.984;3.538;2023-02-20T04:08:22;102618.28;;;10.19;69.18
47716;BME280;33476;50.984;3.538;2023-02-20T04:10:54;102619.13;;;10.20;69.09
47716;BME280;33476;50.984;3.538;2023-02-20T04:13:26;102629.53;;;10.21;69.17
47716;BME280;33476;50.984;3.538;2023-02-20T04:15:53;102623.38;;;10.25;68.93
47716;BME280;33476;50.984;3.538;2023-02-20T04:18:20;102624.25;;;10.26;68.79
47716;BME280;33476;50.984;3.538;2023-02-20T04:20:53;102626.06;;;10.21;68.99
47716;BME280;33476;50.984;3.538;2023-02-20T04:23:21;102621.66;;;10.26;68.83
47716;BME280;33476;50.984;3.538;2023-02-20T04:26:00;102618.13;;;10.28;68.67
47716;BME280;33476;50.984;3.538;2023-02-20T04:28:37;102619.84;;;10.29;68.62
47716;BME280;33476;50.984;3.538;2023-02-20T04:31:02;102628.41;;;10.37;68.40
47716;BME280;33476;50.984;3.538;2023-02-20T04:33:28;102618.00;;;10.36;68.42
47716;BME280;33476;50.984;3.538;2023-02-20T04:35:56;102615.41;;;10.33;68.47
47716;BME280;33476;50.984;3.538;2023-02-20T04:38:22;102621.59;;;10.29;68.41
47716;BME280;33476;50.984;3.538;2023-02-20T04:40:48;102626.00;;;10.25;68.56
47716;BME280;33476;50.984;3.538;2023-02-20T04:43:17;102613.88;;;10.21;68.75
47716;BME280;33476;50.984;3.538;2023-02-20T04:45:45;102620.84;;;10.21;68.76
47716;BME280;33476;50.984;3.538;2023-02-20T04:48:13;102619.03;;;10.27;68.64
47716;BME280;33476;50.984;3.538;2023-02-20T04:50:38;102624.97;;;10.34;68.45
47716;BME280;33476;50.984;3.538;2023-02-20T04:53:05;102618.91;;;10.33;68.41
47716;BME280;33476;50.984;3.538;2023-02-20T04:55:36;102618.06;;;10.31;68.29
47716;BME280;33476;50.984;3.538;2023-02-20T04:58:02;102618.91;;;10.33;68.12
47716;BME280;33476;50.984;3.538;2023-02-20T05:00:30;102627.72;;;10.28;68.50
47716;BME280;33476;50.984;3.538;2023-02-20T05:02:56;102626.88;;;10.26;68.52
47716;BME280;33476;50.984;3.538;2023-02-20T05:05:25;102618.16;;;10.25;68.66
47716;BME280;33476;50.984;3.538;2023-02-20T05:08:01;102629.53;;;10.23;68.53
47716;BME280;33476;50.984;3.538;2023-02-20T05:10:28;102630.31;;;10.29;68.53
47716;BME280;33476;50.984;3.538;2023-02-20T05:12:54;102628.50;;;10.31;68.55
47716;BME280;33476;50.984;3.538;2023-02-20T05:15:24;102629.41;;;10.30;68.62
47716;BME280;33476;50.984;3.538;2023-02-20T05:17:49;102631.09;;;10.33;68.40
47716;BME280;33476;50.984;3.538;2023-02-20T05:20:15;102636.38;;;10.30;68.43
47716;BME280;33476;50.984;3.538;2023-02-20T05:22:41;102634.69;;;10.27;68.48
47716;BME280;33476;50.984;3.538;2023-02-20T05:25:07;102636.38;;;10.30;68.53
47716;BME280;33476;50.984;3.538;2023-02-20T05:27:32;102637.28;;;10.29;68.66
47716;BME280;33476;50.984;3.538;2023-02-20T05:30:01;102634.69;;;10.26;68.42
47716;BME280;33476;50.984;3.538;2023-02-20T05:32:30;102633.84;;;10.25;68.78
47716;BME280;33476;50.984;3.538;2023-02-20T05:34:58;102623.38;;;10.25;68.53
47716;BME280;33476;50.984;3.538;2023-02-20T05:37:25;102621.53;;;10.32;68.64
47716;BME280;33476;50.984;3.538;2023-02-20T05:39:51;102618.03;;;10.33;68.34
47716;BME280;33476;50.984;3.538;2023-02-20T05:42:19;102618.91;;;10.33;68.50
47716;BME280;33476;50.984;3.538;2023-02-20T05:44:48;102629.34;;;10.33;68.26
47716;BME280;33476;50.984;3.538;2023-02-20T05:47:16;102621.47;;;10.36;68.27
47716;BME280;33476;50.984;3.538;2023-02-20T05:49:41;102626.59;;;10.41;68.12
47716;BME280;33476;50.984;3.538;2023-02-20T05:52:07;102631.81;;;10.41;68.12
47716;BME280;33476;50.984;3.538;2023-02-20T05:54:39;102634.44;;;10.41;68.10
47716;BME280;33476;50.984;3.538;2023-02-20T05:57:10;102631.00;;;10.39;67.99
47716;BME280;33476;50.984;3.538;2023-02-20T05:59:35;102631.88;;;10.38;68.19
47716;BME280;33476;50.984;3.538;2023-02-20T06:02:08;102632.78;;;10.37;68.27
47716;BME280;33476;50.984;3.538;2023-02-20T06:04:33;102633.63;;;10.37;68.05
47716;BME280;33476;50.984;3.538;2023-02-20T06:06:58;102637.09;;;10.38;68.33
47716;BME280;33476;50.984;3.538;2023-02-20T06:09:29;102631.88;;;10.38;68.11
47716;BME280;33476;50.984;3.538;2023-02-20T06:11:58;102630.84;;;10.47;68.01
47716;BME280;33476;50.984;3.538;2023-02-20T06:14:32;102636.03;;;10.48;67.92
47716;BME280;33476;50.984;3.538;2023-02-20T06:16:57;102631.66;;;10.50;67.71
47716;BME280;33476;50.984;3.538;2023-02-20T06:19:33;102631.78;;;10.44;67.94
47716;BME280;33476;50.984;3.538;2023-02-20T06:22:01;102632.69;;;10.41;68.11
47716;BME280;33476;50.984;3.538;2023-02-20T06:24:26;102630.88;;;10.45;67.96
47716;BME280;33476;50.984;3.538;2023-02-20T06:26:53;102630.78;;;10.50;67.86
47716;BME280;33476;50.984;3.538;2023-02-20T06:29:18;102629.84;;;10.54;67.66
47716;BME280;33476;50.984;3.538;2023-02-20T06:31:44;102641.09;;;10.57;67.55
47716;BME280;33476;50.984;3.538;2023-02-20T06:34:16;102634.16;;;10.56;67.57
47716;BME280;33476;50.984;3.538;2023-02-20T06:36:42;102636.84;;;10.53;67.69
47716;BME280;33476;50.984;3.538;2023-02-20T06:39:12;102638.63;;;10.50;67.72
47716;BME280;33476;50.984;3.538;2023-02-20T06:41:43;102638.63;;;10.51;67.94
47716;BME280;33476;50.984;3.538;2023-02-20T06:44:09;102639.41;;;10.55;67.87
47716;BME280;33476;50.984;3.538;2023-02-20T06:46:40;102640.28;;;10.55;67.61
47716;BME280;33476;50.984;3.538;2023-02-20T06:49:08;102635.97;;;10.53;67.69
47716;BME280;33476;50.984;3.538;2023-02-20T06:51:34;102643.00;;;10.49;67.97
47716;BME280;33476;50.984;3.538;2023-02-20T06:54:00;102638.63;;;10.50;67.72
47716;BME280;33476;50.984;3.538;2023-02-20T06:56:30;102633.38;;;10.53;67.75
47716;BME280;33476;50.984;3.538;2023-02-20T06:59:01;102638.59;;;10.53;67.60
47716;BME280;33476;50.984;3.538;2023-02-20T07:01:29;102645.44;;;10.58;67.50
47716;BME280;33476;50.984;3.538;2023-02-20T07:03:56;102634.97;;;10.60;67.26
47716;BME280;33476;50.984;3.538;2023-02-20T07:06:24;102641.06;;;10.59;67.42
47716;BME280;33476;50.984;3.538;2023-02-20T07:08:50;102644.53;;;10.61;67.28
47716;BME280;33476;50.984;3.538;2023-02-20T07:11:18;102641.94;;;10.58;67.47
47716;BME280;33476;50.984;3.538;2023-02-20T07:13:44;102650.63;;;10.61;67.35
47716;BME280;33476;50.984;3.538;2023-02-20T07:16:12;102647.09;;;10.62;67.23
47716;BME280;33476;50.984;3.538;2023-02-20T07:18:38;102656.66;;;10.63;66.91
47716;BME280;33476;50.984;3.538;2023-02-20T07:21:03;102654.94;;;10.62;67.38
47716;BME280;33476;50.984;3.538;2023-02-20T07:23:31;102654.13;;;10.60;67.36
47716;BME280;33476;50.984;3.538;2023-02-20T07:25:57;102664.56;;;10.60;67.37
47716;BME280;33476;50.984;3.538;2023-02-20T07:28:25;102666.31;;;10.60;67.41
47716;BME280;33476;50.984;3.538;2023-02-20T07:30:50;102665.47;;;10.59;67.56
47716;BME280;33476;50.984;3.538;2023-02-20T07:33:24;102665.47;;;10.59;67.56
47716;BME280;33476;50.984;3.538;2023-02-20T07:36:00;102659.41;;;10.56;67.61
47716;BME280;33476;50.984;3.538;2023-02-20T07:38:25;102664.56;;;10.60;67.41
47716;BME280;33476;50.984;3.538;2023-02-20T07:40:50;102665.47;;;10.59;67.55
47716;BME280;33476;50.984;3.538;2023-02-20T07:43:15;102663.72;;;10.60;67.58
47716;BME280;33476;50.984;3.538;2023-02-20T07:45:44;102661.97;;;10.60;67.71
47716;BME280;33476;50.984;3.538;2023-02-20T07:48:12;102665.44;;;10.61;67.88
47716;BME280;33476;50.984;3.538;2023-02-20T07:50:40;102663.56;;;10.66;67.38
47716;BME280;33476;50.984;3.538;2023-02-20T07:53:12;102667.94;;;10.65;67.52
47716;BME280;33476;50.984;3.538;2023-02-20T07:55:38;102661.81;;;10.66;67.58
47716;BME280;33476;50.984;3.538;2023-02-20T07:58:03;102656.63;;;10.65;67.65
47716;BME280;33476;50.984;3.538;2023-02-20T08:00:29;102661.81;;;10.68;67.87
47716;BME280;33476;50.984;3.538;2023-02-20T08:02:54;102656.59;;;10.66;67.72
47716;BME280;33476;50.984;3.538;2023-02-20T08:05:23;102660.97;;;10.66;68.04
47716;BME280;33476;50.984;3.538;2023-02-20T08:07:50;102667.66;;;10.81;67.45
47716;BME280;33476;50.984;3.538;2023-02-20T08:10:20;102672.06;;;10.79;67.18
47716;BME280;33476;50.984;3.538;2023-02-20T08:12:51;102672.28;;;10.68;67.77
47716;BME280;33476;50.984;3.538;2023-02-20T08:15:18;102669.66;;;10.66;67.91
47716;BME280;33476;50.984;3.538;2023-02-20T08:17:46;102667.09;;;10.65;68.12
47716;BME280;33476;50.984;3.538;2023-02-20T08:20:14;102667.09;;;10.65;68.16
47716;BME280;33476;50.984;3.538;2023-02-20T08:22:43;102669.63;;;10.69;68.15
47716;BME280;33476;50.984;3.538;2023-02-20T08:25:13;102663.53;;;10.69;68.25
47716;BME280;33476;50.984;3.538;2023-02-20T08:27:43;102671.34;;;10.71;68.23
47716;BME280;33476;50.984;3.538;2023-02-20T08:30:21;102664.31;;;10.73;68.13
47716;BME280;33476;50.984;3.538;2023-02-20T08:32:53;102670.38;;;10.76;68.10
47716;BME280;33476;50.984;3.538;2023-02-20T08:35:22;102669.38;;;10.82;67.98
47716;BME280;33476;50.984;3.538;2023-02-20T08:37:51;102668.47;;;10.83;67.96
47716;BME280;33476;50.984;3.538;2023-02-20T08:40:17;102664.06;;;10.86;68.18
47716;BME280;33476;50.984;3.538;2023-02-20T08:42:42;102672.81;;;10.85;68.16
47716;BME280;33476;50.984;3.538;2023-02-20T08:45:08;102666.72;;;10.85;68.22
47716;BME280;33476;50.984;3.538;2023-02-20T08:47:36;102660.56;;;10.87;68.23
47716;BME280;33476;50.984;3.538;2023-02-20T08:50:02;102671.84;;;10.89;68.27
47716;BME280;33476;50.984;3.538;2023-02-20T08:52:28;102674.41;;;10.92;68.02
47716;BME280;33476;50.984;3.538;2023-02-20T08:54:56;102670.91;;;10.93;68.04
47716;BME280;33476;50.984;3.538;2023-02-20T08:57:21;102668.19;;;10.98;68.12
47716;BME280;33476;50.984;3.538;2023-02-20T08:59:46;102670.72;;;11.03;67.97
47716;BME280;33476;50.984;3.538;2023-02-20T09:02:22;102663.00;;;10.96;68.26
47716;BME280;33476;50.984;3.538;2023-02-20T09:04:56;102668.09;;;11.03;67.99
47716;BME280;33476;50.984;3.538;2023-02-20T09:07:27;102667.22;;;11.04;67.89
47716;BME280;33476;50.984;3.538;2023-02-20T09:09:52;102669.72;;;11.10;67.97
47716;BME280;33476;50.984;3.538;2023-02-20T09:12:19;102673.03;;;11.16;67.68
47716;BME280;33476;50.984;3.538;2023-02-20T09:14:47;102674.66;;;11.22;67.67
47716;BME280;33476;50.984;3.538;2023-02-20T09:17:12;102670.25;;;11.25;67.44
47716;BME280;33476;50.984;3.538;2023-02-20T09:19:38;102671.31;;;11.15;67.68
47716;BME280;33476;50.984;3.538;2023-02-20T09:22:03;102671.41;;;11.11;67.91
47716;BME280;33476;50.984;3.538;2023-02-20T09:24:34;102678.38;;;11.12;68.00
47716;BME280;33476;50.984;3.538;2023-02-20T09:27:01;102673.06;;;11.15;67.86
47716;BME280;33476;50.984;3.538;2023-02-20T09:29:27;102670.41;;;11.18;67.95
47716;BME280;33476;50.984;3.538;2023-02-20T09:31:53;102659.91;;;11.19;67.79
47716;BME280;33476;50.984;3.538;2023-02-20T09:34:26;102666.03;;;11.17;67.85
47716;BME280;33476;50.984;3.538;2023-02-20T09:36:52;102672.72;;;11.32;67.69
47716;BME280;33476;50.984;3.538;2023-02-20T09:39:17;102665.69;;;11.35;66.99
47716;BME280;33476;50.984;3.538;2023-02-20T09:45:03;102672.75;;;11.30;67.42
47716;BME280;33476;50.984;3.538;2023-02-20T09:50:42;102652.72;;;11.29;67.79
47716;BME280;33476;50.984;3.538;2023-02-20T09:53:32;102655.34;;;11.29;67.89
47716;BME280;33476;50.984;3.538;2023-02-20T09:56:03;102647.25;;;11.40;67.60
47716;BME280;33476;50.984;3.538;2023-02-20T09:58:43;102637.69;;;11.39;67.41
47716;BME280;33476;50.984;3.538;2023-02-20T10:01:20;102629.78;;;11.40;67.36
47716;BME280;33476;50.984;3.538;2023-02-20T10:04:23;102634.94;;;11.45;67.65
47716;BME280;33476;50.984;3.538;2023-02-20T10:07:01;102647.03;;;11.49;67.34
47716;BME280;33476;50.984;3.538;2023-02-20T10:09:28;102641.75;;;11.52;66.99
47716;BME280;33476;50.984;3.538;2023-02-20T10:12:31;102635.75;;;11.47;67.46
47716;BME280;33476;50.984;3.538;2023-02-20T10:26:02;102647.19;;;11.43;67.62
47716;BME280;33476;50.984;3.538;2023-02-20T10:28:43;102646.22;;;11.47;67.37
47716;BME280;33476;50.984;3.538;2023-02-20T10:34:09;102654.19;;;11.41;67.30
47716;BME280;33476;50.984;3.538;2023-02-20T10:36:55;102652.63;;;11.34;67.59
47716;BME280;33476;50.984;3.538;2023-02-20T10:39:25;102644.59;;;11.43;67.45
47716;BME280;33476;50.984;3.538;2023-02-20T10:41:54;102649.78;;;11.44;67.48
47716;BME280;33476;50.984;3.538;2023-02-20T10:47:47;102649.72;;;11.46;67.41
47716;BME280;33476;50.984;3.538;2023-02-20T10:50:21;102648.69;;;11.53;67.28
47716;BME280;33476;50.984;3.538;2023-02-20T10:52:50;102652.03;;;11.60;67.02
47716;BME280;33476;50.984;3.538;2023-02-20T10:55:23;102653.81;;;11.59;66.77
47716;BME280;33476;50.984;3.538;2023-02-20T11:00:30;102640.03;;;11.51;67.28
47716;BME280;33476;50.984;3.538;2023-02-20T11:03:06;102642.59;;;11.52;67.43
47716;BME280;33476;50.984;3.538;2023-02-20T11:05:40;102652.22;;;11.52;67.49
47716;BME280;33476;50.984;3.538;2023-02-20T11:08:07;102652.13;;;11.55;67.44
47716;BME280;33476;50.984;3.538;2023-02-20T11:10:38;102653.84;;;11.56;67.65
47716;BME280;33476;50.984;3.538;2023-02-20T11:13:12;102643.38;;;11.56;67.69
47716;BME280;33476;50.984;3.538;2023-02-20T11:15:44;102644.25;;;11.57;67.49
47716;BME280;33476;50.984;3.538;2023-02-20T11:18:31;102639.91;;;11.56;67.82
47716;BME280;33476;50.984;3.538;2023-02-20T11:20:59;102624.13;;;11.60;67.70
47716;BME280;33476;50.984;3.538;2023-02-20T11:23:40;102624.03;;;11.63;67.73
47716;BME280;33476;50.984;3.538;2023-02-20T11:26:25;102622.94;;;11.72;67.36
47716;BME280;33476;50.984;3.538;2023-02-20T11:29:12;102615.97;;;11.72;67.48
47716;BME280;33476;50.984;3.538;2023-02-20T11:31:40;102614.97;;;11.78;66.97
47716;BME280;33476;50.984;3.538;2023-02-20T11:34:16;102617.75;;;11.70;67.43
47716;BME280;33476;50.984;3.538;2023-02-20T11:36:45;102609.91;;;11.70;67.28
47716;BME280;33476;50.984;3.538;2023-02-20T11:39:32;102612.53;;;11.70;67.55
47716;BME280;33476;50.984;3.538;2023-02-20T11:42:18;102613.34;;;11.72;67.45
47716;BME280;33476;50.984;3.538;2023-02-20T11:45:15;102613.28;;;11.75;67.72
47716;BME280;33476;50.984;3.538;2023-02-20T11:47:42;102601.69;;;11.87;67.38
47716;BME280;33476;50.984;3.538;2023-02-20T11:50:18;102595.69;;;11.82;67.46
47716;BME280;33476;50.984;3.538;2023-02-20T11:53:05;102585.16;;;11.85;67.57
47716;BME280;33476;50.984;3.538;2023-02-20T11:55:34;102590.16;;;11.94;67.23
47716;BME280;33476;50.984;3.538;2023-02-20T11:57:59;102578.72;;;11.97;67.32
47716;BME280;33476;50.984;3.538;2023-02-20T12:00:29;102567.41;;;11.96;67.21
47716;BME280;33476;50.984;3.538;2023-02-20T12:05:43;102564.72;;;11.98;67.20
47716;BME280;33476;50.984;3.538;2023-02-20T12:08:38;102552.50;;;11.98;67.38
47716;BME280;33476;50.984;3.538;2023-02-20T12:11:08;102541.97;;;12.01;67.06
47716;BME280;33476;50.984;3.538;2023-02-20T12:13:43;102537.81;;;11.93;67.75
47716;BME280;33476;50.984;3.538;2023-02-20T12:19:20;102538.03;;;11.85;67.86
47716;BME280;33476;50.984;3.538;2023-02-20T12:26:00;102535.94;;;11.98;67.74
47716;BME280;33476;50.984;3.538;2023-02-20T12:42:35;102544.53;;;12.03;67.15
47716;BME280;33476;50.984;3.538;2023-02-20T12:45:35;102543.72;;;12.01;67.40
47716;BME280;33476;50.984;3.538;2023-02-20T12:51:36;102530.75;;;11.96;67.48
47716;BME280;33476;50.984;3.538;2023-02-20T12:57:07;102526.22;;;12.03;67.21
47716;BME280;33476;50.984;3.538;2023-02-20T12:59:48;102516.50;;;12.06;67.16
47716;BME280;33476;50.984;3.538;2023-02-20T13:02:40;102511.19;;;12.08;67.21
47716;BME280;33476;50.984;3.538;2023-02-20T13:05:15;102506.56;;;12.19;66.70
47716;BME280;33476;50.984;3.538;2023-02-20T13:08:06;102513.47;;;12.22;66.97
47716;BME280;33476;50.984;3.538;2023-02-20T13:10:44;102505.66;;;12.20;66.64
47716;BME280;33476;50.984;3.538;2023-02-20T13:13:13;102514.38;;;12.21;66.85
47716;BME280;33476;50.984;3.538;2023-02-20T13:18:53;102499.28;;;12.29;66.86
47716;BME280;33476;50.984;3.538;2023-02-20T13:21:15;102494.84;;;12.31;66.91
47716;BME280;33476;50.984;3.538;2023-02-20T13:23:48;102492.34;;;12.28;67.15
47716;BME280;33476;50.984;3.538;2023-02-20T13:29:11;102499.28;;;12.29;67.04
47716;BME280;33476;50.984;3.538;2023-02-20T13:31:42;102506.94;;;12.36;66.92
47716;BME280;33476;50.984;3.538;2023-02-20T13:36:38;102487.59;;;12.41;67.01
47716;BME280;33476;50.984;3.538;2023-02-20T13:39:35;102486.06;;;12.33;66.97
47716;BME280;33476;50.984;3.538;2023-02-20T13:42:26;102494.16;;;12.26;67.03
47716;BME280;33476;50.984;3.538;2023-02-20T13:44:52;102476.63;;;12.28;67.21
47716;BME280;33476;50.984;3.538;2023-02-20T13:49:53;102476.63;;;12.28;67.26
47716;BME280;33476;50.984;3.538;2023-02-20T13:52:38;102475.94;;;12.21;67.75
47716;BME280;33476;50.984;3.538;2023-02-20T13:57:52;102456.56;;;12.27;67.57
47716;BME280;33476;50.984;3.538;2023-02-20T14:03:00;102439.72;;;12.35;67.27
47716;BME280;33476;50.984;3.538;2023-02-20T14:05:36;102430.94;;;12.36;66.95
47716;BME280;33476;50.984;3.538;2023-02-20T14:08:04;102441.31;;;12.40;67.01
47716;BME280;33476;50.984;3.538;2023-02-20T14:10:36;102433.63;;;12.35;67.19
47716;BME280;33476;50.984;3.538;2023-02-20T14:13:14;102430.19;;;12.33;67.31
47716;BME280;33476;50.984;3.538;2023-02-20T14:15:48;102433.47;;;12.40;67.08
47716;BME280;33476;50.984;3.538;2023-02-20T14:18:31;102429.09;;;12.40;67.10
47716;BME280;33476;50.984;3.538;2023-02-20T14:21:08;102440.56;;;12.36;67.10
47716;BME280;33476;50.984;3.538;2023-02-20T14:23:34;102430.84;;;12.40;67.26
47716;BME280;33476;50.984;3.538;2023-02-20T14:26:26;102433.66;;;12.33;67.22
47716;BME280;33476;50.984;3.538;2023-02-20T14:28:53;102423.25;;;12.30;67.04
47716;BME280;33476;50.984;3.538;2023-02-20T14:31:38;102420.78;;;12.26;67.51
47716;BME280;33476;50.984;3.538;2023-02-20T14:36:41;102425.06;;;12.28;67.19
47716;BME280;33476;50.984;3.538;2023-02-20T14:39:33;102419.09;;;12.25;67.48
47716;BME280;33476;50.984;3.538;2023-02-20T14:42:03;102419.03;;;12.26;67.14
47716;BME280;33476;50.984;3.538;2023-02-20T14:44:31;102417.44;;;12.21;67.67
47716;BME280;33476;50.984;3.538;2023-02-20T14:47:15;102410.53;;;12.18;67.53
47716;BME280;33476;50.984;3.538;2023-02-20T14:49:42;102414.59;;;12.28;67.39
47716;BME280;33476;50.984;3.538;2023-02-20T14:52:22;102416.25;;;12.31;67.37
47716;BME280;33476;50.984;3.538;2023-02-20T14:55:03;102417.03;;;12.34;67.20
47716;BME280;33476;50.984;3.538;2023-02-20T14:57:33;102420.59;;;12.32;67.23